sensor_id;sensor_type;location;lat;lon;timestamp;P1;durP1;ratioP1;P2;durP2;ratioP2
40991;SDS011;29633;49.168;9.848;2023-08-24T00:02:06;2.58;;;1.92;;
40991;SDS011;29633;49.168;9.848;2023-08-24T00:04:32;2.47;;;1.80;;
40991;SDS011;29633;49.168;9.848;2023-08-24T00:06:59;4.28;;;2.22;;
40991;SDS011;29633;49.168;9.848;2023-08-24T00:09:25;3.03;;;2.08;;
40991;SDS011;29633;49.168;9.848;2023-08-24T00:11:51;2.78;;;2.00;;
40991;SDS011;29633;49.168;9.848;2023-08-24T00:14:18;4.53;;;2.03;;
40991;SDS011;29633;49.168;9.848;2023-08-24T00:16:44;2.10;;;1.85;;
40991;SDS011;29633;49.168;9.848;2023-08-24T00:19:09;2.17;;;1.95;;
40991;SDS011;29633;49.168;9.848;2023-08-24T00:21:35;3.58;;;1.90;;
40991;SDS011;29633;49.168;9.848;2023-08-24T00:24:01;1.95;;;1.73;;
40991;SDS011;29633;49.168;9.848;2023-08-24T00:26:27;2.03;;;1.83;;
40991;SDS011;29633;49.168;9.848;2023-08-24T00:28:53;4.68;;;2.15;;
40991;SDS011;29633;49.168;9.848;2023-08-24T00:31:18;2.33;;;2.03;;
40991;SDS011;29633;49.168;9.848;2023-08-24T00:33:44;2.08;;;1.88;;
40991;SDS011;29633;49.168;9.848;2023-08-24T00:36:10;5.78;;;2.20;;
40991;SDS011;29633;49.168;9.848;2023-08-24T00:38:36;3.60;;;1.92;;
40991;SDS011;29633;49.168;9.848;2023-08-24T00:41:01;3.78;;;2.17;;
40991;SDS011;29633;49.168;9.848;2023-08-24T00:43:27;2.45;;;1.98;;
40991;SDS011;29633;49.168;9.848;2023-08-24T00:45:55;4.50;;;2.20;;
40991;SDS011;29633;49.168;9.848;2023-08-24T00:48:25;3.22;;;2.33;;
40991;SDS011;29633;49.168;9.848;2023-08-24T00:50:53;2.53;;;2.17;;
40991;SDS011;29633;49.168;9.848;2023-08-24T00:53:24;5.07;;;2.53;;
40991;SDS011;29633;49.168;9.848;2023-08-24T00:55:51;4.38;;;2.30;;
40991;SDS011;29633;49.168;9.848;2023-08-24T00:58:18;2.80;;;2.00;;
40991;SDS011;29633;49.168;9.848;2023-08-24T01:00:45;3.15;;;2.42;;
40991;SDS011;29633;49.168;9.848;2023-08-24T01:03:11;2.88;;;2.40;;
40991;SDS011;29633;49.168;9.848;2023-08-24T01:05:36;4.20;;;2.65;;
40991;SDS011;29633;49.168;9.848;2023-08-24T01:08:02;2.97;;;2.38;;
40991;SDS011;29633;49.168;9.848;2023-08-24T01:10:30;2.97;;;2.55;;
40991;SDS011;29633;49.168;9.848;2023-08-24T01:13:25;2.97;;;2.33;;
40991;SDS011;29633;49.168;9.848;2023-08-24T01:16:28;5.53;;;2.40;;
40991;SDS011;29633;49.168;9.848;2023-08-24T01:18:59;5.53;;;2.35;;
40991;SDS011;29633;49.168;9.848;2023-08-24T01:21:27;3.70;;;2.22;;
40991;SDS011;29633;49.168;9.848;2023-08-24T01:26:42;5.65;;;2.60;;
40991;SDS011;29633;49.168;9.848;2023-08-24T01:29:08;4.85;;;2.70;;
40991;SDS011;29633;49.168;9.848;2023-08-24T01:31:35;2.47;;;2.20;;
40991;SDS011;29633;49.168;9.848;2023-08-24T01:34:01;2.50;;;2.30;;
40991;SDS011;29633;49.168;9.848;2023-08-24T01:36:26;2.88;;;2.45;;
40991;SDS011;29633;49.168;9.848;2023-08-24T01:38:54;3.05;;;2.75;;
40991;SDS011;29633;49.168;9.848;2023-08-24T01:41:44;2.73;;;2.50;;
40991;SDS011;29633;49.168;9.848;2023-08-24T01:44:14;3.73;;;2.97;;
40991;SDS011;29633;49.168;9.848;2023-08-24T01:46:45;3.28;;;2.78;;
40991;SDS011;29633;49.168;9.848;2023-08-24T01:49:15;3.40;;;2.92;;
40991;SDS011;29633;49.168;9.848;2023-08-24T01:51:43;3.65;;;3.03;;
40991;SDS011;29633;49.168;9.848;2023-08-24T01:54:11;4.00;;;2.95;;
40991;SDS011;29633;49.168;9.848;2023-08-24T01:56:37;2.90;;;2.60;;
40991;SDS011;29633;49.168;9.848;2023-08-24T01:59:03;2.85;;;2.40;;
40991;SDS011;29633;49.168;9.848;2023-08-24T02:01:29;5.25;;;2.70;;
40991;SDS011;29633;49.168;9.848;2023-08-24T02:03:54;3.67;;;2.38;;
40991;SDS011;29633;49.168;9.848;2023-08-24T02:06:20;3.63;;;2.50;;
40991;SDS011;29633;49.168;9.848;2023-08-24T02:08:46;3.83;;;2.97;;
40991;SDS011;29633;49.168;9.848;2023-08-24T02:11:12;3.03;;;2.75;;
40991;SDS011;29633;49.168;9.848;2023-08-24T02:13:38;2.90;;;2.70;;
40991;SDS011;29633;49.168;9.848;2023-08-24T02:16:04;4.07;;;2.78;;
40991;SDS011;29633;49.168;9.848;2023-08-24T02:18:33;3.30;;;2.42;;
40991;SDS011;29633;49.168;9.848;2023-08-24T02:20:59;3.00;;;2.70;;
40991;SDS011;29633;49.168;9.848;2023-08-24T02:23:25;5.00;;;2.70;;
40991;SDS011;29633;49.168;9.848;2023-08-24T02:25:51;4.88;;;2.85;;
40991;SDS011;29633;49.168;9.848;2023-08-24T02:28:17;3.72;;;2.80;;
40991;SDS011;29633;49.168;9.848;2023-08-24T02:30:42;4.43;;;2.70;;
40991;SDS011;29633;49.168;9.848;2023-08-24T02:33:08;3.35;;;2.53;;
40991;SDS011;29633;49.168;9.848;2023-08-24T02:35:34;2.60;;;2.40;;
40991;SDS011;29633;49.168;9.848;2023-08-24T02:37:59;2.92;;;2.42;;
40991;SDS011;29633;49.168;9.848;2023-08-24T02:40:25;3.35;;;2.72;;
40991;SDS011;29633;49.168;9.848;2023-08-24T02:42:51;4.80;;;2.88;;
40991;SDS011;29633;49.168;9.848;2023-08-24T02:45:17;4.57;;;2.88;;
40991;SDS011;29633;49.168;9.848;2023-08-24T02:47:42;7.15;;;2.90;;
40991;SDS011;29633;49.168;9.848;2023-08-24T02:50:08;3.60;;;2.80;;
40991;SDS011;29633;49.168;9.848;2023-08-24T02:52:34;2.80;;;2.55;;
40991;SDS011;29633;49.168;9.848;2023-08-24T02:55:01;3.47;;;2.72;;
40991;SDS011;29633;49.168;9.848;2023-08-24T02:57:26;4.43;;;3.03;;
40991;SDS011;29633;49.168;9.848;2023-08-24T02:59:52;3.03;;;2.72;;
40991;SDS011;29633;49.168;9.848;2023-08-24T03:02:18;4.15;;;2.28;;
40991;SDS011;29633;49.168;9.848;2023-08-24T03:04:44;3.95;;;2.50;;
40991;SDS011;29633;49.168;9.848;2023-08-24T03:07:10;2.90;;;2.70;;
40991;SDS011;29633;49.168;9.848;2023-08-24T03:09:36;3.42;;;2.65;;
40991;SDS011;29633;49.168;9.848;2023-08-24T03:12:01;4.45;;;2.90;;
40991;SDS011;29633;49.168;9.848;2023-08-24T03:14:28;2.78;;;2.33;;
40991;SDS011;29633;49.168;9.848;2023-08-24T03:16:54;6.03;;;2.75;;
40991;SDS011;29633;49.168;9.848;2023-08-24T03:19:19;2.67;;;2.47;;
40991;SDS011;29633;49.168;9.848;2023-08-24T03:21:45;3.20;;;2.88;;
40991;SDS011;29633;49.168;9.848;2023-08-24T03:24:11;4.07;;;2.53;;
40991;SDS011;29633;49.168;9.848;2023-08-24T03:26:37;2.83;;;2.60;;
40991;SDS011;29633;49.168;9.848;2023-08-24T03:29:02;5.35;;;2.63;;
40991;SDS011;29633;49.168;9.848;2023-08-24T03:31:28;2.83;;;2.63;;
40991;SDS011;29633;49.168;9.848;2023-08-24T03:33:54;2.40;;;2.20;;
40991;SDS011;29633;49.168;9.848;2023-08-24T03:36:20;2.65;;;2.38;;
40991;SDS011;29633;49.168;9.848;2023-08-24T03:38:46;3.70;;;2.58;;
40991;SDS011;29633;49.168;9.848;2023-08-24T03:41:11;3.08;;;2.72;;
40991;SDS011;29633;49.168;9.848;2023-08-24T03:43:37;3.53;;;2.45;;
40991;SDS011;29633;49.168;9.848;2023-08-24T03:46:03;2.40;;;2.08;;
40991;SDS011;29633;49.168;9.848;2023-08-24T03:48:30;3.53;;;2.53;;
40991;SDS011;29633;49.168;9.848;2023-08-24T03:50:57;2.78;;;2.25;;
40991;SDS011;29633;49.168;9.848;2023-08-24T03:53:23;2.85;;;2.60;;
40991;SDS011;29633;49.168;9.848;2023-08-24T03:55:53;4.22;;;2.22;;
40991;SDS011;29633;49.168;9.848;2023-08-24T03:58:19;5.40;;;2.28;;
40991;SDS011;29633;49.168;9.848;2023-08-24T04:00:45;4.32;;;2.50;;
40991;SDS011;29633;49.168;9.848;2023-08-24T04:03:11;2.80;;;2.50;;
40991;SDS011;29633;49.168;9.848;2023-08-24T04:05:37;2.70;;;2.50;;
40991;SDS011;29633;49.168;9.848;2023-08-24T04:08:04;4.25;;;2.58;;
40991;SDS011;29633;49.168;9.848;2023-08-24T04:10:30;4.85;;;2.30;;
40991;SDS011;29633;49.168;9.848;2023-08-24T04:12:56;2.70;;;2.50;;
40991;SDS011;29633;49.168;9.848;2023-08-24T04:15:22;6.13;;;2.72;;
40991;SDS011;29633;49.168;9.848;2023-08-24T04:17:47;3.60;;;2.67;;
40991;SDS011;29633;49.168;9.848;2023-08-24T04:20:14;4.63;;;2.50;;
40991;SDS011;29633;49.168;9.848;2023-08-24T04:22:41;3.15;;;2.78;;
40991;SDS011;29633;49.168;9.848;2023-08-24T04:25:07;2.55;;;2.08;;
40991;SDS011;29633;49.168;9.848;2023-08-24T04:27:36;2.55;;;2.35;;
40991;SDS011;29633;49.168;9.848;2023-08-24T04:30:02;3.10;;;2.08;;
40991;SDS011;29633;49.168;9.848;2023-08-24T04:32:28;4.05;;;2.30;;
40991;SDS011;29633;49.168;9.848;2023-08-24T04:34:54;3.30;;;2.50;;
40991;SDS011;29633;49.168;9.848;2023-08-24T04:37:20;3.58;;;2.28;;
40991;SDS011;29633;49.168;9.848;2023-08-24T04:39:46;2.78;;;2.47;;
40991;SDS011;29633;49.168;9.848;2023-08-24T04:42:11;4.20;;;2.70;;
40991;SDS011;29633;49.168;9.848;2023-08-24T04:44:37;2.50;;;2.30;;
40991;SDS011;29633;49.168;9.848;2023-08-24T04:47:03;2.55;;;2.35;;
40991;SDS011;29633;49.168;9.848;2023-08-24T04:49:32;2.55;;;2.25;;
40991;SDS011;29633;49.168;9.848;2023-08-24T04:51:58;2.33;;;2.13;;
40991;SDS011;29633;49.168;9.848;2023-08-24T04:54:24;4.78;;;2.30;;
40991;SDS011;29633;49.168;9.848;2023-08-24T04:56:49;3.25;;;2.22;;
40991;SDS011;29633;49.168;9.848;2023-08-24T04:59:15;2.28;;;2.08;;
40991;SDS011;29633;49.168;9.848;2023-08-24T05:01:41;3.13;;;2.00;;
40991;SDS011;29633;49.168;9.848;2023-08-24T05:04:06;5.13;;;1.90;;
40991;SDS011;29633;49.168;9.848;2023-08-24T05:06:32;2.05;;;1.70;;
40991;SDS011;29633;49.168;9.848;2023-08-24T05:08:58;2.67;;;1.90;;
40991;SDS011;29633;49.168;9.848;2023-08-24T05:11:27;2.08;;;1.88;;
40991;SDS011;29633;49.168;9.848;2023-08-24T05:13:56;1.95;;;1.75;;
40991;SDS011;29633;49.168;9.848;2023-08-24T05:16:22;3.78;;;1.88;;
40991;SDS011;29633;49.168;9.848;2023-08-24T05:18:48;2.80;;;1.85;;
40991;SDS011;29633;49.168;9.848;2023-08-24T05:21:13;3.35;;;1.80;;
40991;SDS011;29633;49.168;9.848;2023-08-24T05:23:39;2.75;;;2.08;;
40991;SDS011;29633;49.168;9.848;2023-08-24T05:26:05;2.50;;;1.85;;
40991;SDS011;29633;49.168;9.848;2023-08-24T05:28:31;3.35;;;1.75;;
40991;SDS011;29633;49.168;9.848;2023-08-24T05:30:57;2.63;;;1.80;;
40991;SDS011;29633;49.168;9.848;2023-08-24T05:33:24;5.13;;;2.20;;
40991;SDS011;29633;49.168;9.848;2023-08-24T05:35:51;2.38;;;1.85;;
40991;SDS011;29633;49.168;9.848;2023-08-24T05:38:17;2.45;;;2.00;;
40991;SDS011;29633;49.168;9.848;2023-08-24T05:40:43;3.45;;;1.80;;
40991;SDS011;29633;49.168;9.848;2023-08-24T05:43:13;3.15;;;1.88;;
40991;SDS011;29633;49.168;9.848;2023-08-24T05:45:39;3.28;;;2.25;;
40991;SDS011;29633;49.168;9.848;2023-08-24T05:48:06;4.00;;;2.22;;
40991;SDS011;29633;49.168;9.848;2023-08-24T05:50:32;5.03;;;2.45;;
40991;SDS011;29633;49.168;9.848;2023-08-24T05:52:59;2.50;;;2.08;;
40991;SDS011;29633;49.168;9.848;2023-08-24T05:55:24;3.30;;;2.28;;
40991;SDS011;29633;49.168;9.848;2023-08-24T05:57:50;2.58;;;1.92;;
40991;SDS011;29633;49.168;9.848;2023-08-24T06:00:16;3.65;;;2.33;;
40991;SDS011;29633;49.168;9.848;2023-08-24T06:02:42;4.53;;;2.08;;
40991;SDS011;29633;49.168;9.848;2023-08-24T06:05:08;4.80;;;2.50;;
40991;SDS011;29633;49.168;9.848;2023-08-24T06:07:35;4.38;;;2.13;;
40991;SDS011;29633;49.168;9.848;2023-08-24T06:10:01;3.28;;;2.08;;
40991;SDS011;29633;49.168;9.848;2023-08-24T06:12:27;2.17;;;1.98;;
40991;SDS011;29633;49.168;9.848;2023-08-24T06:14:53;2.15;;;1.75;;
40991;SDS011;29633;49.168;9.848;2023-08-24T06:17:18;3.92;;;2.00;;
40991;SDS011;29633;49.168;9.848;2023-08-24T06:19:45;2.47;;;1.83;;
40991;SDS011;29633;49.168;9.848;2023-08-24T06:22:11;4.95;;;1.95;;
40991;SDS011;29633;49.168;9.848;2023-08-24T06:24:36;3.80;;;2.03;;
40991;SDS011;29633;49.168;9.848;2023-08-24T06:27:02;3.63;;;1.85;;
40991;SDS011;29633;49.168;9.848;2023-08-24T06:29:28;2.15;;;1.95;;
40991;SDS011;29633;49.168;9.848;2023-08-24T06:31:54;2.42;;;1.80;;
40991;SDS011;29633;49.168;9.848;2023-08-24T06:34:20;2.15;;;1.95;;
40991;SDS011;29633;49.168;9.848;2023-08-24T06:36:46;2.30;;;2.10;;
40991;SDS011;29633;49.168;9.848;2023-08-24T06:39:12;2.83;;;1.92;;
40991;SDS011;29633;49.168;9.848;2023-08-24T06:41:38;3.55;;;2.10;;
40991;SDS011;29633;49.168;9.848;2023-08-24T06:44:04;7.30;;;1.92;;
40991;SDS011;29633;49.168;9.848;2023-08-24T06:46:30;2.13;;;1.80;;
40991;SDS011;29633;49.168;9.848;2023-08-24T06:48:56;2.42;;;1.75;;
40991;SDS011;29633;49.168;9.848;2023-08-24T06:51:22;2.78;;;1.70;;
40991;SDS011;29633;49.168;9.848;2023-08-24T06:53:49;2.25;;;1.80;;
40991;SDS011;29633;49.168;9.848;2023-08-24T06:56:15;3.42;;;1.48;;
40991;SDS011;29633;49.168;9.848;2023-08-24T06:58:42;2.20;;;1.60;;
40991;SDS011;29633;49.168;9.848;2023-08-24T07:01:08;3.33;;;1.58;;
40991;SDS011;29633;49.168;9.848;2023-08-24T07:03:35;2.13;;;1.55;;
40991;SDS011;29633;49.168;9.848;2023-08-24T07:06:02;2.20;;;1.80;;
40991;SDS011;29633;49.168;9.848;2023-08-24T07:08:28;4.70;;;1.77;;
40991;SDS011;29633;49.168;9.848;2023-08-24T07:10:54;2.38;;;2.17;;
40991;SDS011;29633;49.168;9.848;2023-08-24T07:13:19;4.03;;;2.05;;
40991;SDS011;29633;49.168;9.848;2023-08-24T07:15:45;2.63;;;1.70;;
40991;SDS011;29633;49.168;9.848;2023-08-24T07:18:11;2.72;;;1.90;;
40991;SDS011;29633;49.168;9.848;2023-08-24T07:20:37;3.53;;;2.00;;
40991;SDS011;29633;49.168;9.848;2023-08-24T07:23:03;3.40;;;1.98;;
40991;SDS011;29633;49.168;9.848;2023-08-24T07:25:29;6.40;;;2.08;;
40991;SDS011;29633;49.168;9.848;2023-08-24T07:27:55;5.22;;;2.00;;
40991;SDS011;29633;49.168;9.848;2023-08-24T07:30:26;2.60;;;1.88;;
40991;SDS011;29633;49.168;9.848;2023-08-24T07:32:53;3.65;;;1.92;;
40991;SDS011;29633;49.168;9.848;2023-08-24T07:35:19;3.45;;;1.77;;
40991;SDS011;29633;49.168;9.848;2023-08-24T07:37:48;3.88;;;1.85;;
40991;SDS011;29633;49.168;9.848;2023-08-24T07:40:14;2.67;;;1.40;;
40991;SDS011;29633;49.168;9.848;2023-08-24T07:42:47;3.97;;;1.30;;
40991;SDS011;29633;49.168;9.848;2023-08-24T07:45:19;4.03;;;1.67;;
40991;SDS011;29633;49.168;9.848;2023-08-24T07:47:45;1.63;;;1.15;;
40991;SDS011;29633;49.168;9.848;2023-08-24T07:50:11;2.63;;;1.50;;
40991;SDS011;29633;49.168;9.848;2023-08-24T07:52:37;1.70;;;1.50;;
40991;SDS011;29633;49.168;9.848;2023-08-24T07:55:04;2.83;;;1.52;;
40991;SDS011;29633;49.168;9.848;2023-08-24T07:57:32;4.57;;;1.40;;
40991;SDS011;29633;49.168;9.848;2023-08-24T07:59:59;2.63;;;1.50;;
40991;SDS011;29633;49.168;9.848;2023-08-24T08:02:28;1.70;;;1.17;;
40991;SDS011;29633;49.168;9.848;2023-08-24T08:04:56;4.22;;;1.40;;
40991;SDS011;29633;49.168;9.848;2023-08-24T08:07:28;4.35;;;1.40;;
40991;SDS011;29633;49.168;9.848;2023-08-24T08:09:54;3.58;;;1.23;;
40991;SDS011;29633;49.168;9.848;2023-08-24T08:12:22;2.13;;;1.38;;
40991;SDS011;29633;49.168;9.848;2023-08-24T08:14:48;3.78;;;1.50;;
40991;SDS011;29633;49.168;9.848;2023-08-24T08:17:14;2.95;;;1.40;;
40991;SDS011;29633;49.168;9.848;2023-08-24T08:19:40;1.63;;;0.95;;
40991;SDS011;29633;49.168;9.848;2023-08-24T08:22:06;2.25;;;1.33;;
40991;SDS011;29633;49.168;9.848;2023-08-24T08:24:32;3.22;;;1.30;;
40991;SDS011;29633;49.168;9.848;2023-08-24T08:26:58;1.85;;;1.30;;
40991;SDS011;29633;49.168;9.848;2023-08-24T08:29:24;2.60;;;1.30;;
40991;SDS011;29633;49.168;9.848;2023-08-24T08:31:49;3.15;;;1.42;;
40991;SDS011;29633;49.168;9.848;2023-08-24T08:34:15;1.83;;;1.27;;
40991;SDS011;29633;49.168;9.848;2023-08-24T08:36:41;5.53;;;1.38;;
40991;SDS011;29633;49.168;9.848;2023-08-24T08:39:06;2.25;;;1.30;;
40991;SDS011;29633;49.168;9.848;2023-08-24T08:41:33;1.50;;;1.23;;
40991;SDS011;29633;49.168;9.848;2023-08-24T08:44:06;1.77;;;1.35;;
40991;SDS011;29633;49.168;9.848;2023-08-24T08:46:34;2.58;;;1.52;;
40991;SDS011;29633;49.168;9.848;2023-08-24T08:49:00;2.42;;;1.27;;
40991;SDS011;29633;49.168;9.848;2023-08-24T08:51:26;3.03;;;1.50;;
40991;SDS011;29633;49.168;9.848;2023-08-24T08:53:53;1.75;;;1.10;;
40991;SDS011;29633;49.168;9.848;2023-08-24T08:56:19;2.58;;;1.20;;
40991;SDS011;29633;49.168;9.848;2023-08-24T08:58:46;3.85;;;1.40;;
40991;SDS011;29633;49.168;9.848;2023-08-24T09:01:13;1.55;;;1.40;;
40991;SDS011;29633;49.168;9.848;2023-08-24T09:03:39;2.00;;;1.45;;
40991;SDS011;29633;49.168;9.848;2023-08-24T09:06:06;1.40;;;1.30;;
40991;SDS011;29633;49.168;9.848;2023-08-24T09:08:31;5.88;;;1.40;;
40991;SDS011;29633;49.168;9.848;2023-08-24T09:11:00;2.08;;;1.52;;
40991;SDS011;29633;49.168;9.848;2023-08-24T09:13:28;1.65;;;1.40;;
40991;SDS011;29633;49.168;9.848;2023-08-24T09:15:55;1.38;;;1.27;;
40991;SDS011;29633;49.168;9.848;2023-08-24T09:18:35;2.63;;;1.42;;
40991;SDS011;29633;49.168;9.848;2023-08-24T09:21:09;1.83;;;1.20;;
40991;SDS011;29633;49.168;9.848;2023-08-24T09:23:37;2.10;;;1.33;;
40991;SDS011;29633;49.168;9.848;2023-08-24T09:26:08;1.50;;;1.30;;
40991;SDS011;29633;49.168;9.848;2023-08-24T09:28:34;1.73;;;1.38;;
40991;SDS011;29633;49.168;9.848;2023-08-24T09:31:01;1.88;;;1.40;;
40991;SDS011;29633;49.168;9.848;2023-08-24T09:33:28;1.92;;;1.40;;
40991;SDS011;29633;49.168;9.848;2023-08-24T09:35:55;1.55;;;1.38;;
40991;SDS011;29633;49.168;9.848;2023-08-24T09:38:26;2.95;;;1.35;;
40991;SDS011;29633;49.168;9.848;2023-08-24T09:40:53;3.88;;;1.50;;
40991;SDS011;29633;49.168;9.848;2023-08-24T09:43:20;2.58;;;1.40;;
40991;SDS011;29633;49.168;9.848;2023-08-24T09:45:56;2.03;;;1.52;;
40991;SDS011;29633;49.168;9.848;2023-08-24T09:48:23;6.43;;;1.77;;
40991;SDS011;29633;49.168;9.848;2023-08-24T09:50:52;4.07;;;1.67;;
40991;SDS011;29633;49.168;9.848;2023-08-24T09:53:18;1.52;;;1.42;;
40991;SDS011;29633;49.168;9.848;2023-08-24T09:55:48;2.67;;;1.50;;
40991;SDS011;29633;49.168;9.848;2023-08-24T09:58:19;3.42;;;1.63;;
40991;SDS011;29633;49.168;9.848;2023-08-24T10:00:46;3.10;;;1.70;;
40991;SDS011;29633;49.168;9.848;2023-08-24T10:03:15;2.30;;;1.58;;
40991;SDS011;29633;49.168;9.848;2023-08-24T10:05:47;1.60;;;1.50;;
40991;SDS011;29633;49.168;9.848;2023-08-24T10:08:27;2.88;;;1.73;;
40991;SDS011;29633;49.168;9.848;2023-08-24T10:11:22;2.53;;;1.55;;
40991;SDS011;29633;49.168;9.848;2023-08-24T10:16:48;2.55;;;1.50;;
40991;SDS011;29633;49.168;9.848;2023-08-24T10:19:15;1.88;;;1.67;;
40991;SDS011;29633;49.168;9.848;2023-08-24T10:21:42;6.72;;;2.00;;
40991;SDS011;29633;49.168;9.848;2023-08-24T10:24:08;2.50;;;1.70;;
40991;SDS011;29633;49.168;9.848;2023-08-24T10:26:37;1.67;;;1.58;;
40991;SDS011;29633;49.168;9.848;2023-08-24T10:29:06;2.53;;;1.48;;
40991;SDS011;29633;49.168;9.848;2023-08-24T10:31:32;3.00;;;2.00;;
40991;SDS011;29633;49.168;9.848;2023-08-24T10:33:59;2.92;;;1.98;;
40991;SDS011;29633;49.168;9.848;2023-08-24T10:36:27;1.85;;;1.55;;
40991;SDS011;29633;49.168;9.848;2023-08-24T10:38:55;1.55;;;1.45;;
40991;SDS011;29633;49.168;9.848;2023-08-24T10:41:27;2.33;;;1.50;;
40991;SDS011;29633;49.168;9.848;2023-08-24T10:43:53;2.28;;;2.00;;
40991;SDS011;29633;49.168;9.848;2023-08-24T10:46:35;3.28;;;1.90;;
40991;SDS011;29633;49.168;9.848;2023-08-24T10:49:03;2.50;;;2.00;;
40991;SDS011;29633;49.168;9.848;2023-08-24T10:51:29;4.82;;;1.88;;
40991;SDS011;29633;49.168;9.848;2023-08-24T10:53:57;2.75;;;1.70;;
40991;SDS011;29633;49.168;9.848;2023-08-24T10:59:16;3.95;;;2.05;;
40991;SDS011;29633;49.168;9.848;2023-08-24T11:01:43;2.42;;;1.90;;
40991;SDS011;29633;49.168;9.848;2023-08-24T11:04:23;2.47;;;1.60;;
40991;SDS011;29633;49.168;9.848;2023-08-24T11:06:54;1.90;;;1.75;;
40991;SDS011;29633;49.168;9.848;2023-08-24T11:09:22;2.10;;;1.90;;
40991;SDS011;29633;49.168;9.848;2023-08-24T11:11:58;2.47;;;1.77;;
40991;SDS011;29633;49.168;9.848;2023-08-24T11:14:26;3.45;;;1.90;;
40991;SDS011;29633;49.168;9.848;2023-08-24T11:16:56;3.17;;;2.00;;
40991;SDS011;29633;49.168;9.848;2023-08-24T11:19:24;2.28;;;1.85;;
40991;SDS011;29633;49.168;9.848;2023-08-24T11:21:50;2.22;;;2.00;;
40991;SDS011;29633;49.168;9.848;2023-08-24T11:24:17;2.92;;;2.10;;
40991;SDS011;29633;49.168;9.848;2023-08-24T11:26:43;2.03;;;1.80;;
40991;SDS011;29633;49.168;9.848;2023-08-24T11:29:11;2.22;;;1.83;;
40991;SDS011;29633;49.168;9.848;2023-08-24T11:31:38;2.75;;;2.03;;
40991;SDS011;29633;49.168;9.848;2023-08-24T11:34:05;2.13;;;1.90;;
40991;SDS011;29633;49.168;9.848;2023-08-24T11:36:42;2.30;;;2.10;;
40991;SDS011;29633;49.168;9.848;2023-08-24T11:39:14;2.13;;;1.90;;
40991;SDS011;29633;49.168;9.848;2023-08-24T11:42:06;2.10;;;1.90;;
40991;SDS011;29633;49.168;9.848;2023-08-24T11:44:47;3.28;;;2.00;;
40991;SDS011;29633;49.168;9.848;2023-08-24T11:47:14;2.42;;;2.20;;
40991;SDS011;29633;49.168;9.848;2023-08-24T11:49:41;3.65;;;2.08;;
40991;SDS011;29633;49.168;9.848;2023-08-24T11:52:07;2.70;;;2.20;;
40991;SDS011;29633;49.168;9.848;2023-08-24T11:54:34;1.75;;;1.65;;
40991;SDS011;29633;49.168;9.848;2023-08-24T11:57:05;2.58;;;1.83;;
40991;SDS011;29633;49.168;9.848;2023-08-24T11:59:33;1.75;;;1.65;;
40991;SDS011;29633;49.168;9.848;2023-08-24T12:02:02;2.22;;;2.03;;
40991;SDS011;29633;49.168;9.848;2023-08-24T12:04:37;2.63;;;1.60;;
40991;SDS011;29633;49.168;9.848;2023-08-24T12:07:13;3.35;;;1.90;;
40991;SDS011;29633;49.168;9.848;2023-08-24T12:09:40;2.67;;;1.75;;
40991;SDS011;29633;49.168;9.848;2023-08-24T12:12:16;2.10;;;1.90;;
40991;SDS011;29633;49.168;9.848;2023-08-24T12:14:45;2.42;;;1.65;;
40991;SDS011;29633;49.168;9.848;2023-08-24T12:17:13;2.53;;;1.58;;
40991;SDS011;29633;49.168;9.848;2023-08-24T12:19:44;2.53;;;1.63;;
40991;SDS011;29633;49.168;9.848;2023-08-24T12:22:20;2.20;;;1.73;;
40991;SDS011;29633;49.168;9.848;2023-08-24T12:24:46;2.30;;;2.08;;
40991;SDS011;29633;49.168;9.848;2023-08-24T12:29:48;2.42;;;1.80;;
40991;SDS011;29633;49.168;9.848;2023-08-24T12:32:15;1.73;;;1.60;;
40991;SDS011;29633;49.168;9.848;2023-08-24T12:34:45;3.17;;;1.60;;
40991;SDS011;29633;49.168;9.848;2023-08-24T12:37:11;3.60;;;1.55;;
40991;SDS011;29633;49.168;9.848;2023-08-24T12:39:39;2.88;;;1.83;;
40991;SDS011;29633;49.168;9.848;2023-08-24T12:42:05;2.67;;;1.65;;
40991;SDS011;29633;49.168;9.848;2023-08-24T12:44:31;4.00;;;1.40;;
40991;SDS011;29633;49.168;9.848;2023-08-24T12:46:58;2.97;;;1.67;;
40991;SDS011;29633;49.168;9.848;2023-08-24T12:49:24;2.88;;;1.55;;
40991;SDS011;29633;49.168;9.848;2023-08-24T12:51:50;2.50;;;1.50;;
40991;SDS011;29633;49.168;9.848;2023-08-24T12:54:15;3.40;;;1.52;;
40991;SDS011;29633;49.168;9.848;2023-08-24T12:56:41;2.28;;;1.30;;
40991;SDS011;29633;49.168;9.848;2023-08-24T12:59:07;2.85;;;1.60;;
40991;SDS011;29633;49.168;9.848;2023-08-24T13:01:33;4.57;;;1.63;;
40991;SDS011;29633;49.168;9.848;2023-08-24T13:03:59;2.97;;;1.50;;
40991;SDS011;29633;49.168;9.848;2023-08-24T13:06:25;5.40;;;1.83;;
40991;SDS011;29633;49.168;9.848;2023-08-24T13:08:52;3.65;;;1.52;;
40991;SDS011;29633;49.168;9.848;2023-08-24T13:11:18;3.03;;;1.50;;
40991;SDS011;29633;49.168;9.848;2023-08-24T13:13:44;2.03;;;1.83;;
40991;SDS011;29633;49.168;9.848;2023-08-24T13:16:12;2.45;;;1.73;;
40991;SDS011;29633;49.168;9.848;2023-08-24T13:18:38;2.50;;;1.85;;
40991;SDS011;29633;49.168;9.848;2023-08-24T13:21:04;1.95;;;1.75;;
40991;SDS011;29633;49.168;9.848;2023-08-24T13:23:29;2.42;;;1.80;;
40991;SDS011;29633;49.168;9.848;2023-08-24T13:25:57;1.70;;;1.60;;
40991;SDS011;29633;49.168;9.848;2023-08-24T13:28:23;2.83;;;2.00;;
40991;SDS011;29633;49.168;9.848;2023-08-24T13:30:49;1.90;;;1.70;;
40991;SDS011;29633;49.168;9.848;2023-08-24T13:33:14;2.05;;;1.85;;
40991;SDS011;29633;49.168;9.848;2023-08-24T13:35:40;2.38;;;1.70;;
40991;SDS011;29633;49.168;9.848;2023-08-24T13:38:06;1.77;;;1.60;;
40991;SDS011;29633;49.168;9.848;2023-08-24T13:40:32;4.55;;;1.50;;
40991;SDS011;29633;49.168;9.848;2023-08-24T13:42:58;2.75;;;1.65;;
40991;SDS011;29633;49.168;9.848;2023-08-24T13:45:24;2.50;;;1.90;;
40991;SDS011;29633;49.168;9.848;2023-08-24T13:47:49;2.38;;;1.85;;
40991;SDS011;29633;49.168;9.848;2023-08-24T13:50:15;2.10;;;1.70;;
40991;SDS011;29633;49.168;9.848;2023-08-24T13:52:41;1.67;;;1.52;;
40991;SDS011;29633;49.168;9.848;2023-08-24T13:55:07;3.03;;;1.90;;
40991;SDS011;29633;49.168;9.848;2023-08-24T13:57:33;2.35;;;1.90;;
40991;SDS011;29633;49.168;9.848;2023-08-24T13:59:59;2.30;;;1.77;;
40991;SDS011;29633;49.168;9.848;2023-08-24T14:02:26;3.95;;;2.10;;
40991;SDS011;29633;49.168;9.848;2023-08-24T14:04:51;2.35;;;1.77;;
40991;SDS011;29633;49.168;9.848;2023-08-24T14:07:17;2.50;;;1.77;;
40991;SDS011;29633;49.168;9.848;2023-08-24T14:09:43;2.08;;;1.80;;
40991;SDS011;29633;49.168;9.848;2023-08-24T14:12:08;2.80;;;1.90;;
40991;SDS011;29633;49.168;9.848;2023-08-24T14:14:34;2.15;;;1.92;;
40991;SDS011;29633;49.168;9.848;2023-08-24T14:17:00;1.73;;;1.63;;
40991;SDS011;29633;49.168;9.848;2023-08-24T14:19:25;1.88;;;1.67;;
40991;SDS011;29633;49.168;9.848;2023-08-24T14:21:52;2.20;;;1.77;;
40991;SDS011;29633;49.168;9.848;2023-08-24T14:24:17;2.03;;;1.83;;
40991;SDS011;29633;49.168;9.848;2023-08-24T14:26:43;1.60;;;1.50;;
40991;SDS011;29633;49.168;9.848;2023-08-24T14:29:12;3.30;;;2.13;;
40991;SDS011;29633;49.168;9.848;2023-08-24T14:31:39;3.50;;;2.08;;
40991;SDS011;29633;49.168;9.848;2023-08-24T14:34:04;1.88;;;1.63;;
40991;SDS011;29633;49.168;9.848;2023-08-24T14:36:30;3.65;;;1.90;;
40991;SDS011;29633;49.168;9.848;2023-08-24T14:38:56;2.35;;;2.10;;
40991;SDS011;29633;49.168;9.848;2023-08-24T14:41:23;2.35;;;1.95;;
40991;SDS011;29633;49.168;9.848;2023-08-24T14:43:48;1.75;;;1.52;;
40991;SDS011;29633;49.168;9.848;2023-08-24T14:46:14;2.67;;;1.80;;
40991;SDS011;29633;49.168;9.848;2023-08-24T14:48:40;2.47;;;1.65;;
40991;SDS011;29633;49.168;9.848;2023-08-24T14:51:06;2.25;;;1.63;;
40991;SDS011;29633;49.168;9.848;2023-08-24T14:53:31;1.80;;;1.63;;
40991;SDS011;29633;49.168;9.848;2023-08-24T14:55:57;3.45;;;1.50;;
40991;SDS011;29633;49.168;9.848;2023-08-24T14:58:24;1.70;;;1.50;;
40991;SDS011;29633;49.168;9.848;2023-08-24T15:00:51;1.77;;;1.63;;